sensor_id;sensor_type;location;lat;lon;timestamp;temperature;humidity
13982;DHT22;7065;50.880;5.502;2022-07-31T00:01:48;20.00;99.90
13982;DHT22;7065;50.880;5.502;2022-07-31T00:04:14;20.10;99.90
13982;DHT22;7065;50.880;5.502;2022-07-31T00:06:40;20.10;99.90
13982;DHT22;7065;50.880;5.502;2022-07-31T00:09:08;20.00;99.90
13982;DHT22;7065;50.880;5.502;2022-07-31T00:11:33;20.00;99.90
13982;DHT22;7065;50.880;5.502;2022-07-31T00:13:59;20.00;99.90
13982;DHT22;7065;50.880;5.502;2022-07-31T00:16:25;20.00;99.90
13982;DHT22;7065;50.880;5.502;2022-07-31T00:18:50;20.00;99.90
13982;DHT22;7065;50.880;5.502;2022-07-31T00:21:16;20.00;99.90
13982;DHT22;7065;50.880;5.502;2022-07-31T00:23:43;20.00;99.90
13982;DHT22;7065;50.880;5.502;2022-07-31T00:26:08;20.00;99.90
13982;DHT22;7065;50.880;5.502;2022-07-31T00:28:35;20.00;99.90
13982;DHT22;7065;50.880;5.502;2022-07-31T00:31:01;20.10;99.90
13982;DHT22;7065;50.880;5.502;2022-07-31T00:33:27;20.10;99.90
13982;DHT22;7065;50.880;5.502;2022-07-31T00:35:52;20.10;99.90
13982;DHT22;7065;50.880;5.502;2022-07-31T00:38:18;20.10;99.90
13982;DHT22;7065;50.880;5.502;2022-07-31T00:40:48;20.10;99.90
13982;DHT22;7065;50.880;5.502;2022-07-31T00:43:15;20.10;99.90
13982;DHT22;7065;50.880;5.502;2022-07-31T00:45:41;20.10;99.90
13982;DHT22;7065;50.880;5.502;2022-07-31T00:48:06;20.10;99.90
13982;DHT22;7065;50.880;5.502;2022-07-31T00:50:32;20.10;99.90
13982;DHT22;7065;50.880;5.502;2022-07-31T00:52:58;20.10;99.90
13982;DHT22;7065;50.880;5.502;2022-07-31T00:55:23;20.00;99.90
13982;DHT22;7065;50.880;5.502;2022-07-31T00:57:50;19.90;99.90
13982;DHT22;7065;50.880;5.502;2022-07-31T01:00:16;19.90;99.90
13982;DHT22;7065;50.880;5.502;2022-07-31T01:02:41;19.90;99.90
13982;DHT22;7065;50.880;5.502;2022-07-31T01:05:07;19.90;99.90
13982;DHT22;7065;50.880;5.502;2022-07-31T01:07:33;19.90;99.90
13982;DHT22;7065;50.880;5.502;2022-07-31T01:10:03;19.80;99.90
13982;DHT22;7065;50.880;5.502;2022-07-31T01:12:37;19.80;99.90
13982;DHT22;7065;50.880;5.502;2022-07-31T01:15:06;19.80;99.90
13982;DHT22;7065;50.880;5.502;2022-07-31T01:17:33;19.70;99.90
13982;DHT22;7065;50.880;5.502;2022-07-31T01:20:01;19.70;99.90
13982;DHT22;7065;50.880;5.502;2022-07-31T01:28:05;19.60;99.90
13982;DHT22;7065;50.880;5.502;2022-07-31T01:30:46;19.60;99.90
13982;DHT22;7065;50.880;5.502;2022-07-31T01:33:19;19.60;99.90
13982;DHT22;7065;50.880;5.502;2022-07-31T01:35:50;19.50;99.90
13982;DHT22;7065;50.880;5.502;2022-07-31T01:38:39;19.50;99.90
13982;DHT22;7065;50.880;5.502;2022-07-31T01:41:11;19.40;99.90
13982;DHT22;7065;50.880;5.502;2022-07-31T01:43:43;19.40;99.90
13982;DHT22;7065;50.880;5.502;2022-07-31T01:46:13;19.40;99.90
13982;DHT22;7065;50.880;5.502;2022-07-31T01:48:40;19.40;99.90
13982;DHT22;7065;50.880;5.502;2022-07-31T01:51:07;19.30;99.90
13982;DHT22;7065;50.880;5.502;2022-07-31T01:53:34;19.20;99.90
13982;DHT22;7065;50.880;5.502;2022-07-31T01:56:01;19.20;99.90
13982;DHT22;7065;50.880;5.502;2022-07-31T01:58:31;19.20;99.90
13982;DHT22;7065;50.880;5.502;2022-07-31T02:00:57;19.20;99.90
13982;DHT22;7065;50.880;5.502;2022-07-31T02:03:25;19.20;99.90
13982;DHT22;7065;50.880;5.502;2022-07-31T02:05:52;19.20;99.90
13982;DHT22;7065;50.880;5.502;2022-07-31T02:08:19;19.20;99.90
13982;DHT22;7065;50.880;5.502;2022-07-31T02:10:46;19.20;99.90
13982;DHT22;7065;50.880;5.502;2022-07-31T02:13:13;19.20;99.90
13982;DHT22;7065;50.880;5.502;2022-07-31T02:15:40;19.20;99.90
13982;DHT22;7065;50.880;5.502;2022-07-31T02:18:09;19.10;99.90
13982;DHT22;7065;50.880;5.502;2022-07-31T02:20:37;19.10;99.90
13982;DHT22;7065;50.880;5.502;2022-07-31T02:23:04;19.00;99.90
13982;DHT22;7065;50.880;5.502;2022-07-31T02:25:31;18.90;99.90
13982;DHT22;7065;50.880;5.502;2022-07-31T02:27:59;18.90;99.90
13982;DHT22;7065;50.880;5.502;2022-07-31T02:30:29;18.80;99.90
13982;DHT22;7065;50.880;5.502;2022-07-31T02:32:55;18.80;99.90
13982;DHT22;7065;50.880;5.502;2022-07-31T02:35:21;18.80;99.90
13982;DHT22;7065;50.880;5.502;2022-07-31T02:37:52;18.70;99.90
13982;DHT22;7065;50.880;5.502;2022-07-31T02:40:19;18.60;99.90
13982;DHT22;7065;50.880;5.502;2022-07-31T02:42:46;18.60;99.90
13982;DHT22;7065;50.880;5.502;2022-07-31T02:45:12;18.60;99.90
13982;DHT22;7065;50.880;5.502;2022-07-31T02:47:38;18.50;99.90
13982;DHT22;7065;50.880;5.502;2022-07-31T02:50:05;18.50;99.90
13982;DHT22;7065;50.880;5.502;2022-07-31T02:52:32;18.50;99.90
13982;DHT22;7065;50.880;5.502;2022-07-31T02:54:58;18.60;99.90
13982;DHT22;7065;50.880;5.502;2022-07-31T02:57:24;18.50;99.90
13982;DHT22;7065;50.880;5.502;2022-07-31T02:59:50;18.40;99.90
13982;DHT22;7065;50.880;5.502;2022-07-31T03:02:16;18.40;99.90
13982;DHT22;7065;50.880;5.502;2022-07-31T03:04:42;18.40;99.90
13982;DHT22;7065;50.880;5.502;2022-07-31T03:07:08;18.40;99.90
13982;DHT22;7065;50.880;5.502;2022-07-31T03:09:34;18.30;99.90
13982;DHT22;7065;50.880;5.502;2022-07-31T03:12:00;18.30;99.90
13982;DHT22;7065;50.880;5.502;2022-07-31T03:14:26;18.30;99.90
13982;DHT22;7065;50.880;5.502;2022-07-31T03:16:53;18.20;99.90
13982;DHT22;7065;50.880;5.502;2022-07-31T03:19:22;18.20;99.90
13982;DHT22;7065;50.880;5.502;2022-07-31T03:21:48;18.20;99.90
13982;DHT22;7065;50.880;5.502;2022-07-31T03:24:16;18.20;99.90
13982;DHT22;7065;50.880;5.502;2022-07-31T03:26:41;18.10;99.90
13982;DHT22;7065;50.880;5.502;2022-07-31T03:29:07;18.10;99.90
13982;DHT22;7065;50.880;5.502;2022-07-31T03:31:33;18.10;99.90
13982;DHT22;7065;50.880;5.502;2022-07-31T03:33:59;18.10;99.90
13982;DHT22;7065;50.880;5.502;2022-07-31T03:36:25;18.10;99.90
13982;DHT22;7065;50.880;5.502;2022-07-31T03:38:51;18.10;99.90
13982;DHT22;7065;50.880;5.502;2022-07-31T03:41:17;18.10;99.90
13982;DHT22;7065;50.880;5.502;2022-07-31T03:43:43;18.10;99.90
13982;DHT22;7065;50.880;5.502;2022-07-31T03:46:09;18.00;99.90
13982;DHT22;7065;50.880;5.502;2022-07-31T03:48:35;18.00;99.90
13982;DHT22;7065;50.880;5.502;2022-07-31T03:51:01;18.00;99.90
13982;DHT22;7065;50.880;5.502;2022-07-31T03:53:28;17.90;99.90
13982;DHT22;7065;50.880;5.502;2022-07-31T03:55:54;17.90;99.90
13982;DHT22;7065;50.880;5.502;2022-07-31T03:58:21;17.90;99.90
13982;DHT22;7065;50.880;5.502;2022-07-31T04:00:47;17.90;99.90
13982;DHT22;7065;50.880;5.502;2022-07-31T04:03:13;17.90;99.90
13982;DHT22;7065;50.880;5.502;2022-07-31T04:05:39;17.90;99.90
13982;DHT22;7065;50.880;5.502;2022-07-31T04:08:07;17.90;99.90
13982;DHT22;7065;50.880;5.502;2022-07-31T04:10:33;17.90;99.90
13982;DHT22;7065;50.880;5.502;2022-07-31T04:13:03;17.80;99.90
13982;DHT22;7065;50.880;5.502;2022-07-31T04:15:29;17.80;99.90
13982;DHT22;7065;50.880;5.502;2022-07-31T04:17:55;17.80;99.90
13982;DHT22;7065;50.880;5.502;2022-07-31T04:20:21;17.80;99.90
13982;DHT22;7065;50.880;5.502;2022-07-31T04:22:47;17.80;99.90
13982;DHT22;7065;50.880;5.502;2022-07-31T04:25:13;17.80;99.90
13982;DHT22;7065;50.880;5.502;2022-07-31T04:27:39;17.80;99.90
13982;DHT22;7065;50.880;5.502;2022-07-31T04:30:05;17.80;99.90
13982;DHT22;7065;50.880;5.502;2022-07-31T04:32:33;17.80;99.90
13982;DHT22;7065;50.880;5.502;2022-07-31T04:34:59;17.80;99.90
13982;DHT22;7065;50.880;5.502;2022-07-31T04:37:24;17.80;99.90
13982;DHT22;7065;50.880;5.502;2022-07-31T04:39:50;17.80;99.90
13982;DHT22;7065;50.880;5.502;2022-07-31T04:42:15;17.80;99.90
13982;DHT22;7065;50.880;5.502;2022-07-31T04:44:41;17.80;99.90
13982;DHT22;7065;50.880;5.502;2022-07-31T04:47:07;17.80;99.90
13982;DHT22;7065;50.880;5.502;2022-07-31T04:49:33;17.80;99.90
13982;DHT22;7065;50.880;5.502;2022-07-31T04:51:59;17.90;99.90
13982;DHT22;7065;50.880;5.502;2022-07-31T04:54:25;17.90;99.90
13982;DHT22;7065;50.880;5.502;2022-07-31T04:56:51;17.90;99.90
13982;DHT22;7065;50.880;5.502;2022-07-31T04:59:20;17.90;99.90
13982;DHT22;7065;50.880;5.502;2022-07-31T05:01:47;17.90;99.90
13982;DHT22;7065;50.880;5.502;2022-07-31T05:04:13;17.90;99.90
13982;DHT22;7065;50.880;5.502;2022-07-31T05:06:43;17.90;99.90
13982;DHT22;7065;50.880;5.502;2022-07-31T05:09:12;17.90;99.90
13982;DHT22;7065;50.880;5.502;2022-07-31T05:11:39;17.90;99.90
13982;DHT22;7065;50.880;5.502;2022-07-31T05:14:06;17.90;99.90
13982;DHT22;7065;50.880;5.502;2022-07-31T05:16:33;17.90;99.90
13982;DHT22;7065;50.880;5.502;2022-07-31T05:19:00;17.90;99.90
13982;DHT22;7065;50.880;5.502;2022-07-31T05:21:26;18.00;99.90
13982;DHT22;7065;50.880;5.502;2022-07-31T05:23:52;18.00;99.90
13982;DHT22;7065;50.880;5.502;2022-07-31T05:26:18;18.00;99.90
13982;DHT22;7065;50.880;5.502;2022-07-31T05:28:46;17.90;99.90
13982;DHT22;7065;50.880;5.502;2022-07-31T05:31:14;18.00;99.90
13982;DHT22;7065;50.880;5.502;2022-07-31T05:33:40;18.00;99.90
13982;DHT22;7065;50.880;5.502;2022-07-31T05:36:06;18.00;99.90
13982;DHT22;7065;50.880;5.502;2022-07-31T05:38:33;18.00;99.90
13982;DHT22;7065;50.880;5.502;2022-07-31T05:40:58;18.00;99.90
13982;DHT22;7065;50.880;5.502;2022-07-31T05:43:24;18.00;99.90
13982;DHT22;7065;50.880;5.502;2022-07-31T05:45:50;18.10;99.90
13982;DHT22;7065;50.880;5.502;2022-07-31T05:48:16;18.10;99.90
13982;DHT22;7065;50.880;5.502;2022-07-31T05:50:43;18.10;99.90
13982;DHT22;7065;50.880;5.502;2022-07-31T05:53:10;18.20;99.90
13982;DHT22;7065;50.880;5.502;2022-07-31T05:55:37;18.30;99.90
13982;DHT22;7065;50.880;5.502;2022-07-31T05:58:04;18.30;99.90
13982;DHT22;7065;50.880;5.502;2022-07-31T06:00:29;18.40;99.90
13982;DHT22;7065;50.880;5.502;2022-07-31T06:02:55;18.40;99.90
13982;DHT22;7065;50.880;5.502;2022-07-31T06:05:21;18.50;99.90
13982;DHT22;7065;50.880;5.502;2022-07-31T06:07:47;18.50;99.90
13982;DHT22;7065;50.880;5.502;2022-07-31T06:10:15;18.50;99.90
13982;DHT22;7065;50.880;5.502;2022-07-31T06:12:40;18.50;99.90
13982;DHT22;7065;50.880;5.502;2022-07-31T06:15:06;18.50;99.90
13982;DHT22;7065;50.880;5.502;2022-07-31T06:17:32;18.60;99.90
13982;DHT22;7065;50.880;5.502;2022-07-31T06:19:58;18.60;99.90
13982;DHT22;7065;50.880;5.502;2022-07-31T06:22:24;18.70;99.90
13982;DHT22;7065;50.880;5.502;2022-07-31T06:24:49;18.70;99.90
13982;DHT22;7065;50.880;5.502;2022-07-31T06:27:15;18.80;99.90
13982;DHT22;7065;50.880;5.502;2022-07-31T06:29:41;18.90;99.90
13982;DHT22;7065;50.880;5.502;2022-07-31T06:32:07;18.90;99.90
13982;DHT22;7065;50.880;5.502;2022-07-31T06:34:33;19.00;99.90
13982;DHT22;7065;50.880;5.502;2022-07-31T06:36:59;19.00;99.90
13982;DHT22;7065;50.880;5.502;2022-07-31T06:39:24;19.10;99.90
13982;DHT22;7065;50.880;5.502;2022-07-31T06:41:50;19.10;99.90
13982;DHT22;7065;50.880;5.502;2022-07-31T06:44:18;19.20;99.90
13982;DHT22;7065;50.880;5.502;2022-07-31T06:46:47;19.20;99.90
13982;DHT22;7065;50.880;5.502;2022-07-31T06:49:14;19.30;99.90
13982;DHT22;7065;50.880;5.502;2022-07-31T06:51:40;19.30;99.90
13982;DHT22;7065;50.880;5.502;2022-07-31T06:54:07;19.30;99.90
13982;DHT22;7065;50.880;5.502;2022-07-31T06:56:34;19.30;99.90
13982;DHT22;7065;50.880;5.502;2022-07-31T06:59:00;19.30;99.90
13982;DHT22;7065;50.880;5.502;2022-07-31T07:01:27;19.40;99.90
13982;DHT22;7065;50.880;5.502;2022-07-31T07:03:53;19.40;99.90
13982;DHT22;7065;50.880;5.502;2022-07-31T07:06:19;19.50;99.90
13982;DHT22;7065;50.880;5.502;2022-07-31T07:08:45;19.50;99.90
13982;DHT22;7065;50.880;5.502;2022-07-31T07:11:10;19.50;99.90
13982;DHT22;7065;50.880;5.502;2022-07-31T07:13:36;19.50;99.90
13982;DHT22;7065;50.880;5.502;2022-07-31T07:16:04;19.60;99.90
13982;DHT22;7065;50.880;5.502;2022-07-31T07:18:30;19.70;99.90
13982;DHT22;7065;50.880;5.502;2022-07-31T07:20:56;19.80;99.90
13982;DHT22;7065;50.880;5.502;2022-07-31T07:23:22;19.90;99.90
13982;DHT22;7065;50.880;5.502;2022-07-31T07:25:48;20.00;99.90
13982;DHT22;7065;50.880;5.502;2022-07-31T07:28:14;20.00;99.90
13982;DHT22;7065;50.880;5.502;2022-07-31T07:30:40;20.00;99.90
13982;DHT22;7065;50.880;5.502;2022-07-31T07:33:05;20.00;99.90
13982;DHT22;7065;50.880;5.502;2022-07-31T07:35:32;20.00;99.90
13982;DHT22;7065;50.880;5.502;2022-07-31T07:37:57;20.00;99.90
13982;DHT22;7065;50.880;5.502;2022-07-31T07:40:24;20.10;99.90
13982;DHT22;7065;50.880;5.502;2022-07-31T07:42:50;20.00;99.90
13982;DHT22;7065;50.880;5.502;2022-07-31T07:45:17;20.00;99.90
13982;DHT22;7065;50.880;5.502;2022-07-31T07:47:42;20.00;99.90
13982;DHT22;7065;50.880;5.502;2022-07-31T07:50:09;20.10;99.90
13982;DHT22;7065;50.880;5.502;2022-07-31T07:52:36;20.20;99.90
13982;DHT22;7065;50.880;5.502;2022-07-31T07:55:03;20.20;99.90
13982;DHT22;7065;50.880;5.502;2022-07-31T07:57:28;20.30;99.90
13982;DHT22;7065;50.880;5.502;2022-07-31T07:59:58;20.20;99.90
13982;DHT22;7065;50.880;5.502;2022-07-31T08:02:23;20.30;99.90
13982;DHT22;7065;50.880;5.502;2022-07-31T08:04:49;20.40;99.90
13982;DHT22;7065;50.880;5.502;2022-07-31T08:07:14;20.50;99.90
13982;DHT22;7065;50.880;5.502;2022-07-31T08:09:40;20.60;99.90
13982;DHT22;7065;50.880;5.502;2022-07-31T08:12:06;20.70;99.90
13982;DHT22;7065;50.880;5.502;2022-07-31T08:14:31;20.80;99.90
13982;DHT22;7065;50.880;5.502;2022-07-31T08:16:57;20.90;99.90
13982;DHT22;7065;50.880;5.502;2022-07-31T08:19:22;20.90;99.90
13982;DHT22;7065;50.880;5.502;2022-07-31T08:21:48;21.00;99.90
13982;DHT22;7065;50.880;5.502;2022-07-31T08:24:14;21.00;99.90
13982;DHT22;7065;50.880;5.502;2022-07-31T08:26:41;21.10;99.90
13982;DHT22;7065;50.880;5.502;2022-07-31T08:29:26;21.20;99.90
13982;DHT22;7065;50.880;5.502;2022-07-31T08:31:52;21.30;99.90
13982;DHT22;7065;50.880;5.502;2022-07-31T08:34:18;21.50;99.90
13982;DHT22;7065;50.880;5.502;2022-07-31T08:36:44;21.50;99.90
13982;DHT22;7065;50.880;5.502;2022-07-31T08:39:09;21.60;99.90
13982;DHT22;7065;50.880;5.502;2022-07-31T08:41:38;21.70;99.90
13982;DHT22;7065;50.880;5.502;2022-07-31T08:44:05;21.80;99.90
13982;DHT22;7065;50.880;5.502;2022-07-31T08:46:33;21.90;99.90
13982;DHT22;7065;50.880;5.502;2022-07-31T08:49:00;22.00;99.90
13982;DHT22;7065;50.880;5.502;2022-07-31T08:51:29;22.10;99.90
13982;DHT22;7065;50.880;5.502;2022-07-31T08:53:55;22.00;99.90
13982;DHT22;7065;50.880;5.502;2022-07-31T08:56:22;21.90;99.90
13982;DHT22;7065;50.880;5.502;2022-07-31T08:58:48;21.80;99.90
13982;DHT22;7065;50.880;5.502;2022-07-31T09:01:14;21.80;99.90
13982;DHT22;7065;50.880;5.502;2022-07-31T09:03:40;21.90;99.90
13982;DHT22;7065;50.880;5.502;2022-07-31T09:06:06;22.00;99.90
13982;DHT22;7065;50.880;5.502;2022-07-31T09:08:32;22.00;99.90
13982;DHT22;7065;50.880;5.502;2022-07-31T09:13:28;22.30;99.90
13982;DHT22;7065;50.880;5.502;2022-07-31T09:15:57;22.50;99.90
13982;DHT22;7065;50.880;5.502;2022-07-31T09:18:23;22.60;99.90
13982;DHT22;7065;50.880;5.502;2022-07-31T09:23:23;23.00;99.90
13982;DHT22;7065;50.880;5.502;2022-07-31T09:25:57;23.00;99.90
13982;DHT22;7065;50.880;5.502;2022-07-31T09:28:50;23.00;99.90
13982;DHT22;7065;50.880;5.502;2022-07-31T09:31:19;22.90;99.90
13982;DHT22;7065;50.880;5.502;2022-07-31T09:33:45;23.00;99.90
13982;DHT22;7065;50.880;5.502;2022-07-31T09:36:11;23.10;99.90
13982;DHT22;7065;50.880;5.502;2022-07-31T09:38:39;23.10;99.90
13982;DHT22;7065;50.880;5.502;2022-07-31T09:41:12;23.10;99.90
13982;DHT22;7065;50.880;5.502;2022-07-31T09:43:39;23.20;99.90
13982;DHT22;7065;50.880;5.502;2022-07-31T09:46:05;23.40;99.90
13982;DHT22;7065;50.880;5.502;2022-07-31T09:48:31;23.50;99.90
13982;DHT22;7065;50.880;5.502;2022-07-31T09:51:00;23.50;99.90
13982;DHT22;7065;50.880;5.502;2022-07-31T09:53:41;23.50;99.90
13982;DHT22;7065;50.880;5.502;2022-07-31T09:56:07;23.50;99.90
13982;DHT22;7065;50.880;5.502;2022-07-31T09:58:39;23.60;99.90
13982;DHT22;7065;50.880;5.502;2022-07-31T10:01:08;23.70;99.90
13982;DHT22;7065;50.880;5.502;2022-07-31T10:03:36;23.70;99.90
13982;DHT22;7065;50.880;5.502;2022-07-31T10:06:04;23.70;99.90
13982;DHT22;7065;50.880;5.502;2022-07-31T10:08:33;23.60;99.90
13982;DHT22;7065;50.880;5.502;2022-07-31T10:11:02;23.70;99.90
13982;DHT22;7065;50.880;5.502;2022-07-31T10:13:28;23.80;99.90
13982;DHT22;7065;50.880;5.502;2022-07-31T10:15:57;24.00;99.90
13982;DHT22;7065;50.880;5.502;2022-07-31T10:18:25;24.00;99.90
13982;DHT22;7065;50.880;5.502;2022-07-31T10:20:53;24.00;99.90
13982;DHT22;7065;50.880;5.502;2022-07-31T10:23:22;24.00;99.90
13982;DHT22;7065;50.880;5.502;2022-07-31T10:25:59;24.00;99.90
13982;DHT22;7065;50.880;5.502;2022-07-31T10:28:25;24.00;99.90
13982;DHT22;7065;50.880;5.502;2022-07-31T10:30:51;24.00;99.90
13982;DHT22;7065;50.880;5.502;2022-07-31T10:33:18;24.20;99.90
13982;DHT22;7065;50.880;5.502;2022-07-31T10:36:17;24.60;99.90
13982;DHT22;7065;50.880;5.502;2022-07-31T10:41:30;25.00;99.90
13982;DHT22;7065;50.880;5.502;2022-07-31T10:44:04;25.20;99.90
13982;DHT22;7065;50.880;5.502;2022-07-31T10:46:32;25.20;99.90
13982;DHT22;7065;50.880;5.502;2022-07-31T10:48:59;25.40;99.90
13982;DHT22;7065;50.880;5.502;2022-07-31T10:51:25;25.30;99.90
13982;DHT22;7065;50.880;5.502;2022-07-31T10:56:23;25.20;99.90
13982;DHT22;7065;50.880;5.502;2022-07-31T10:58:49;25.00;99.90
13982;DHT22;7065;50.880;5.502;2022-07-31T11:01:15;25.00;99.90
13982;DHT22;7065;50.880;5.502;2022-07-31T11:03:44;25.20;99.90
13982;DHT22;7065;50.880;5.502;2022-07-31T11:06:12;25.50;99.90
13982;DHT22;7065;50.880;5.502;2022-07-31T11:11:11;25.50;99.90
13982;DHT22;7065;50.880;5.502;2022-07-31T11:13:50;25.60;99.90
13982;DHT22;7065;50.880;5.502;2022-07-31T11:16:17;25.80;99.90
13982;DHT22;7065;50.880;5.502;2022-07-31T11:18:43;25.90;99.90
13982;DHT22;7065;50.880;5.502;2022-07-31T11:21:39;25.70;99.90
13982;DHT22;7065;50.880;5.502;2022-07-31T11:26:51;26.00;99.90
13982;DHT22;7065;50.880;5.502;2022-07-31T11:37:18;26.20;99.90
13982;DHT22;7065;50.880;5.502;2022-07-31T11:39:45;26.30;99.90
13982;DHT22;7065;50.880;5.502;2022-07-31T11:42:11;26.40;99.90
13982;DHT22;7065;50.880;5.502;2022-07-31T11:44:37;26.60;99.90
13982;DHT22;7065;50.880;5.502;2022-07-31T11:47:03;26.70;99.90
13982;DHT22;7065;50.880;5.502;2022-07-31T11:49:29;26.70;99.90
13982;DHT22;7065;50.880;5.502;2022-07-31T11:52:01;26.70;99.90
13982;DHT22;7065;50.880;5.502;2022-07-31T11:54:26;26.70;99.90
13982;DHT22;7065;50.880;5.502;2022-07-31T11:56:53;26.70;99.90
13982;DHT22;7065;50.880;5.502;2022-07-31T11:59:51;26.60;99.90
13982;DHT22;7065;50.880;5.502;2022-07-31T12:02:17;26.70;99.90
13982;DHT22;7065;50.880;5.502;2022-07-31T12:04:42;26.70;99.90
13982;DHT22;7065;50.880;5.502;2022-07-31T12:07:09;26.80;99.90
13982;DHT22;7065;50.880;5.502;2022-07-31T12:09:35;26.80;99.90
13982;DHT22;7065;50.880;5.502;2022-07-31T12:12:05;26.70;99.90
13982;DHT22;7065;50.880;5.502;2022-07-31T12:14:33;26.90;99.90
13982;DHT22;7065;50.880;5.502;2022-07-31T12:17:00;27.00;99.90
13982;DHT22;7065;50.880;5.502;2022-07-31T12:19:31;27.10;99.90
13982;DHT22;7065;50.880;5.502;2022-07-31T12:21:57;26.80;99.90
13982;DHT22;7065;50.880;5.502;2022-07-31T12:24:24;26.50;99.90
13982;DHT22;7065;50.880;5.502;2022-07-31T12:26:55;26.50;99.90
13982;DHT22;7065;50.880;5.502;2022-07-31T12:29:32;26.50;99.90
13982;DHT22;7065;50.880;5.502;2022-07-31T12:31:58;26.70;99.90
13982;DHT22;7065;50.880;5.502;2022-07-31T12:34:32;26.70;99.90
13982;DHT22;7065;50.880;5.502;2022-07-31T12:37:16;26.80;99.90
13982;DHT22;7065;50.880;5.502;2022-07-31T12:42:23;26.80;99.90
13982;DHT22;7065;50.880;5.502;2022-07-31T12:44:51;27.10;99.90
13982;DHT22;7065;50.880;5.502;2022-07-31T12:47:28;27.10;99.90
13982;DHT22;7065;50.880;5.502;2022-07-31T12:49:55;27.10;99.90
13982;DHT22;7065;50.880;5.502;2022-07-31T12:52:20;26.80;99.90
13982;DHT22;7065;50.880;5.502;2022-07-31T12:54:46;26.70;99.90
13982;DHT22;7065;50.880;5.502;2022-07-31T12:57:12;26.60;99.90
13982;DHT22;7065;50.880;5.502;2022-07-31T12:59:38;26.40;99.90
13982;DHT22;7065;50.880;5.502;2022-07-31T13:02:05;26.10;99.90
13982;DHT22;7065;50.880;5.502;2022-07-31T13:04:31;25.90;99.90
13982;DHT22;7065;50.880;5.502;2022-07-31T13:06:56;25.80;99.90
13982;DHT22;7065;50.880;5.502;2022-07-31T13:09:22;26.00;99.90
13982;DHT22;7065;50.880;5.502;2022-07-31T13:11:48;26.40;99.90
13982;DHT22;7065;50.880;5.502;2022-07-31T13:14:19;26.60;99.90
13982;DHT22;7065;50.880;5.502;2022-07-31T13:16:46;26.90;99.90
13982;DHT22;7065;50.880;5.502;2022-07-31T13:19:12;27.30;99.90
13982;DHT22;7065;50.880;5.502;2022-07-31T13:21:38;27.40;99.90
13982;DHT22;7065;50.880;5.502;2022-07-31T13:24:04;27.20;99.90
13982;DHT22;7065;50.880;5.502;2022-07-31T13:26:36;27.00;99.90
13982;DHT22;7065;50.880;5.502;2022-07-31T13:29:03;27.30;99.90
13982;DHT22;7065;50.880;5.502;2022-07-31T13:31:28;27.50;99.90
13982;DHT22;7065;50.880;5.502;2022-07-31T13:33:54;27.70;99.90
13982;DHT22;7065;50.880;5.502;2022-07-31T13:36:20;27.70;99.90
13982;DHT22;7065;50.880;5.502;2022-07-31T13:38:46;27.50;99.90
13982;DHT22;7065;50.880;5.502;2022-07-31T13:41:12;27.40;99.90
13982;DHT22;7065;50.880;5.502;2022-07-31T13:43:50;27.40;99.90
13982;DHT22;7065;50.880;5.502;2022-07-31T13:46:20;27.40;99.90
13982;DHT22;7065;50.880;5.502;2022-07-31T13:48:47;27.50;99.90
13982;DHT22;7065;50.880;5.502;2022-07-31T13:51:13;27.50;99.90
13982;DHT22;7065;50.880;5.502;2022-07-31T13:53:39;27.90;99.90
13982;DHT22;7065;50.880;5.502;2022-07-31T13:56:05;28.30;99.90
13982;DHT22;7065;50.880;5.502;2022-07-31T13:58:30;28.60;99.90
13982;DHT22;7065;50.880;5.502;2022-07-31T14:00:57;28.60;99.90
13982;DHT22;7065;50.880;5.502;2022-07-31T14:03:23;28.20;99.90
13982;DHT22;7065;50.880;5.502;2022-07-31T14:05:49;28.30;99.90
13982;DHT22;7065;50.880;5.502;2022-07-31T14:08:16;28.20;99.90
13982;DHT22;7065;50.880;5.502;2022-07-31T14:10:42;28.10;99.90
13982;DHT22;7065;50.880;5.502;2022-07-31T14:13:07;28.00;99.90
13982;DHT22;7065;50.880;5.502;2022-07-31T14:15:33;27.80;99.90
13982;DHT22;7065;50.880;5.502;2022-07-31T14:17:59;27.60;99.90
13982;DHT22;7065;50.880;5.502;2022-07-31T14:20:24;27.50;99.90
13982;DHT22;7065;50.880;5.502;2022-07-31T14:22:50;27.50;99.90
13982;DHT22;7065;50.880;5.502;2022-07-31T14:25:16;27.40;99.90
13982;DHT22;7065;50.880;5.502;2022-07-31T14:27:42;27.40;99.90
13982;DHT22;7065;50.880;5.502;2022-07-31T14:30:12;27.40;99.90
13982;DHT22;7065;50.880;5.502;2022-07-31T14:32:39;27.50;99.90
13982;DHT22;7065;50.880;5.502;2022-07-31T14:35:05;27.80;99.90
13982;DHT22;7065;50.880;5.502;2022-07-31T14:37:32;27.70;99.90
13982;DHT22;7065;50.880;5.502;2022-07-31T14:39:57;27.50;99.90
13982;DHT22;7065;50.880;5.502;2022-07-31T14:42:23;27.50;99.90
13982;DHT22;7065;50.880;5.502;2022-07-31T14:44:49;27.40;99.90
13982;DHT22;7065;50.880;5.502;2022-07-31T14:47:15;27.40;99.90
13982;DHT22;7065;50.880;5.502;2022-07-31T14:49:41;27.20;99.90
13982;DHT22;7065;50.880;5.502;2022-07-31T14:52:06;27.00;99.90
13982;DHT22;7065;50.880;5.502;2022-07-31T14:54:32;26.80;99.90
13982;DHT22;7065;50.880;5.502;2022-07-31T14:56:58;26.80;99.90
13982;DHT22;7065;50.880;5.502;2022-07-31T14:59:29;26.60;99.90
13982;DHT22;7065;50.880;5.502;2022-07-31T15:01:55;26.50;99.90
13982;DHT22;7065;50.880;5.502;2022-07-31T15:04:21;26.30;99.90
13982;DHT22;7065;50.880;5.502;2022-07-31T15:06:47;26.10;99.90
13982;DHT22;7065;50.880;5.502;2022-07-31T15:09:13;26.10;99.90
13982;DHT22;7065;50.880;5.502;2022-07-31T15:11:39;26.00;99.90
13982;DHT22;7065;50.880;5.502;2022-07-31T15:14:04;26.00;99.90
13982;DHT22;7065;50.880;5.502;2022-07-31T15:16:30;26.00;99.90
13982;DHT22;7065;50.880;5.502;2022-07-31T15:18:56;26.10;99.90
13982;DHT22;7065;50.880;5.502;2022-07-31T15:21:22;26.20;99.90
13982;DHT22;7065;50.880;5.502;2022-07-31T15:23:47;26.30;99.90
13982;DHT22;7065;50.880;5.502;2022-07-31T15:26:13;26.30;99.90
13982;DHT22;7065;50.880;5.502;2022-07-31T15:28:39;26.20;99.90
13982;DHT22;7065;50.880;5.502;2022-07-31T15:31:05;26.20;99.90
13982;DHT22;7065;50.880;5.502;2022-07-31T15:33:31;26.20;99.90
13982;DHT22;7065;50.880;5.502;2022-07-31T15:35:56;26.10;99.90
13982;DHT22;7065;50.880;5.502;2022-07-31T15:38:22;26.10;99.90
13982;DHT22;7065;50.880;5.502;2022-07-31T15:40:48;26.00;99.90
13982;DHT22;7065;50.880;5.502;2022-07-31T15:43:16;26.20;99.90
13982;DHT22;7065;50.880;5.502;2022-07-31T15:45:42;26.30;99.90
13982;DHT22;7065;50.880;5.502;2022-07-31T15:48:08;26.30;99.90
13982;DHT22;7065;50.880;5.502;2022-07-31T15:50:34;26.40;99.90
13982;DHT22;7065;50.880;5.502;2022-07-31T15:53:00;26.40;99.90
13982;DHT22;7065;50.880;5.502;2022-07-31T15:55:26;26.30;99.90
13982;DHT22;7065;50.880;5.502;2022-07-31T15:57:53;26.30;99.90
13982;DHT22;7065;50.880;5.502;2022-07-31T16:00:19;26.20;99.90
13982;DHT22;7065;50.880;5.502;2022-07-31T16:02:46;26.20;99.90
13982;DHT22;7065;50.880;5.502;2022-07-31T16:05:13;26.10;99.90
13982;DHT22;7065;50.880;5.502;2022-07-31T16:07:39;26.10;99.90
13982;DHT22;7065;50.880;5.502;2022-07-31T16:10:05;26.00;99.90
13982;DHT22;7065;50.880;5.502;2022-07-31T16:12:31;26.00;99.90
13982;DHT22;7065;50.880;5.502;2022-07-31T16:14:57;26.00;99.90
13982;DHT22;7065;50.880;5.502;2022-07-31T16:17:23;26.10;99.90